sensor_id;sensor_type;location;lat;lon;timestamp;P1;durP1;ratioP1;P2;durP2;ratioP2
4933;SDS011;2482;49.154;8.254;2022-09-01T00:00:06;7.67;;;6.53;;
4933;SDS011;2482;49.154;8.254;2022-09-01T00:02:38;8.80;;;6.33;;
4933;SDS011;2482;49.154;8.254;2022-09-01T00:05:08;6.90;;;6.30;;
4933;SDS011;2482;49.154;8.254;2022-09-01T00:07:37;9.00;;;6.83;;
4933;SDS011;2482;49.154;8.254;2022-09-01T00:10:05;10.07;;;6.60;;
4933;SDS011;2482;49.154;8.254;2022-09-01T00:12:34;7.47;;;6.77;;
4933;SDS011;2482;49.154;8.254;2022-09-01T00:15:03;8.63;;;7.07;;
4933;SDS011;2482;49.154;8.254;2022-09-01T00:17:33;10.60;;;7.20;;
4933;SDS011;2482;49.154;8.254;2022-09-01T00:20:02;8.57;;;6.73;;
4933;SDS011;2482;49.154;8.254;2022-09-01T00:22:33;9.30;;;6.90;;
4933;SDS011;2482;49.154;8.254;2022-09-01T00:25:00;8.03;;;7.23;;
4933;SDS011;2482;49.154;8.254;2022-09-01T00:27:27;8.37;;;7.30;;
4933;SDS011;2482;49.154;8.254;2022-09-01T00:29:56;9.43;;;6.77;;
4933;SDS011;2482;49.154;8.254;2022-09-01T00:32:25;8.00;;;7.27;;
4933;SDS011;2482;49.154;8.254;2022-09-01T00:34:53;8.30;;;7.30;;
4933;SDS011;2482;49.154;8.254;2022-09-01T00:37:21;8.30;;;7.30;;
4933;SDS011;2482;49.154;8.254;2022-09-01T00:39:49;8.80;;;7.90;;
4933;SDS011;2482;49.154;8.254;2022-09-01T00:42:16;10.30;;;7.30;;
4933;SDS011;2482;49.154;8.254;2022-09-01T00:44:44;7.90;;;7.10;;
4933;SDS011;2482;49.154;8.254;2022-09-01T00:47:11;10.23;;;7.97;;
4933;SDS011;2482;49.154;8.254;2022-09-01T00:49:40;7.80;;;7.00;;
4933;SDS011;2482;49.154;8.254;2022-09-01T00:52:14;9.83;;;7.53;;
4933;SDS011;2482;49.154;8.254;2022-09-01T00:54:48;10.27;;;7.57;;
4933;SDS011;2482;49.154;8.254;2022-09-01T00:57:20;7.80;;;7.00;;
4933;SDS011;2482;49.154;8.254;2022-09-01T00:59:55;10.90;;;7.60;;
4933;SDS011;2482;49.154;8.254;2022-09-01T01:02:29;8.27;;;7.27;;
4933;SDS011;2482;49.154;8.254;2022-09-01T01:04:56;8.33;;;7.10;;
4933;SDS011;2482;49.154;8.254;2022-09-01T01:07:24;9.43;;;7.60;;
4933;SDS011;2482;49.154;8.254;2022-09-01T01:09:55;9.80;;;7.53;;
4933;SDS011;2482;49.154;8.254;2022-09-01T01:12:22;8.43;;;7.60;;
4933;SDS011;2482;49.154;8.254;2022-09-01T01:14:54;8.40;;;7.60;;
4933;SDS011;2482;49.154;8.254;2022-09-01T01:17:22;8.90;;;7.20;;
4933;SDS011;2482;49.154;8.254;2022-09-01T01:19:50;8.07;;;7.30;;
4933;SDS011;2482;49.154;8.254;2022-09-01T01:22:44;9.10;;;7.00;;
4933;SDS011;2482;49.154;8.254;2022-09-01T01:25:40;10.30;;;7.40;;
4933;SDS011;2482;49.154;8.254;2022-09-01T01:36:11;8.03;;;6.70;;
4933;SDS011;2482;49.154;8.254;2022-09-01T01:38:46;8.23;;;7.30;;
4933;SDS011;2482;49.154;8.254;2022-09-01T01:41:16;8.53;;;7.60;;
4933;SDS011;2482;49.154;8.254;2022-09-01T01:43:45;8.20;;;7.40;;
4933;SDS011;2482;49.154;8.254;2022-09-01T01:46:13;7.60;;;6.90;;
4933;SDS011;2482;49.154;8.254;2022-09-01T01:48:47;10.40;;;8.20;;
4933;SDS011;2482;49.154;8.254;2022-09-01T01:53:53;7.40;;;6.70;;
4933;SDS011;2482;49.154;8.254;2022-09-01T01:56:22;9.33;;;8.20;;
4933;SDS011;2482;49.154;8.254;2022-09-01T01:58:51;7.33;;;6.63;;
4933;SDS011;2482;49.154;8.254;2022-09-01T02:01:21;9.53;;;8.00;;
4933;SDS011;2482;49.154;8.254;2022-09-01T02:03:54;9.27;;;8.03;;
4933;SDS011;2482;49.154;8.254;2022-09-01T02:06:25;11.73;;;7.00;;
4933;SDS011;2482;49.154;8.254;2022-09-01T02:08:54;11.07;;;7.77;;
4933;SDS011;2482;49.154;8.254;2022-09-01T02:13:54;9.40;;;7.03;;
4933;SDS011;2482;49.154;8.254;2022-09-01T02:16:23;10.77;;;7.80;;
4933;SDS011;2482;49.154;8.254;2022-09-01T02:18:54;9.13;;;8.07;;
4933;SDS011;2482;49.154;8.254;2022-09-01T02:21:22;9.53;;;7.47;;
4933;SDS011;2482;49.154;8.254;2022-09-01T02:23:52;13.93;;;7.27;;
4933;SDS011;2482;49.154;8.254;2022-09-01T02:26:27;9.33;;;7.43;;
4933;SDS011;2482;49.154;8.254;2022-09-01T02:29:03;10.20;;;7.73;;
4933;SDS011;2482;49.154;8.254;2022-09-01T02:31:36;9.40;;;8.40;;
4933;SDS011;2482;49.154;8.254;2022-09-01T02:34:06;8.50;;;7.60;;
4933;SDS011;2482;49.154;8.254;2022-09-01T02:36:43;9.83;;;8.40;;
4933;SDS011;2482;49.154;8.254;2022-09-01T02:39:17;8.60;;;7.70;;
4933;SDS011;2482;49.154;8.254;2022-09-01T02:41:57;8.73;;;7.93;;
4933;SDS011;2482;49.154;8.254;2022-09-01T02:44:32;13.20;;;9.37;;
4933;SDS011;2482;49.154;8.254;2022-09-01T02:47:04;9.87;;;7.30;;
4933;SDS011;2482;49.154;8.254;2022-09-01T02:49:37;8.27;;;7.47;;
4933;SDS011;2482;49.154;8.254;2022-09-01T02:52:04;10.87;;;7.50;;
4933;SDS011;2482;49.154;8.254;2022-09-01T02:54:33;8.30;;;7.50;;
4933;SDS011;2482;49.154;8.254;2022-09-01T02:57:01;9.23;;;7.67;;
4933;SDS011;2482;49.154;8.254;2022-09-01T02:59:29;10.17;;;8.07;;
4933;SDS011;2482;49.154;8.254;2022-09-01T03:01:57;10.10;;;7.70;;
4933;SDS011;2482;49.154;8.254;2022-09-01T03:04:25;12.57;;;7.87;;
4933;SDS011;2482;49.154;8.254;2022-09-01T03:06:52;13.73;;;8.13;;
4933;SDS011;2482;49.154;8.254;2022-09-01T03:09:20;9.50;;;8.50;;
4933;SDS011;2482;49.154;8.254;2022-09-01T03:11:49;8.77;;;7.73;;
4933;SDS011;2482;49.154;8.254;2022-09-01T03:14:18;8.20;;;7.40;;
4933;SDS011;2482;49.154;8.254;2022-09-01T03:16:47;8.37;;;7.10;;
4933;SDS011;2482;49.154;8.254;2022-09-01T03:19:14;12.00;;;8.60;;
4933;SDS011;2482;49.154;8.254;2022-09-01T03:21:43;9.00;;;8.20;;
4933;SDS011;2482;49.154;8.254;2022-09-01T03:24:12;11.47;;;8.30;;
4933;SDS011;2482;49.154;8.254;2022-09-01T03:26:43;10.43;;;8.40;;
4933;SDS011;2482;49.154;8.254;2022-09-01T03:29:15;11.30;;;8.67;;
4933;SDS011;2482;49.154;8.254;2022-09-01T03:31:43;9.90;;;7.83;;
4933;SDS011;2482;49.154;8.254;2022-09-01T03:34:10;13.03;;;8.80;;
4933;SDS011;2482;49.154;8.254;2022-09-01T03:36:39;8.47;;;7.67;;
4933;SDS011;2482;49.154;8.254;2022-09-01T03:39:16;10.40;;;7.80;;
4933;SDS011;2482;49.154;8.254;2022-09-01T03:41:45;13.97;;;8.10;;
4933;SDS011;2482;49.154;8.254;2022-09-01T03:44:13;9.73;;;7.70;;
4933;SDS011;2482;49.154;8.254;2022-09-01T03:46:42;10.67;;;8.07;;
4933;SDS011;2482;49.154;8.254;2022-09-01T03:49:12;9.37;;;8.10;;
4933;SDS011;2482;49.154;8.254;2022-09-01T03:51:41;8.63;;;7.80;;
4933;SDS011;2482;49.154;8.254;2022-09-01T03:54:10;8.80;;;8.00;;
4933;SDS011;2482;49.154;8.254;2022-09-01T03:56:37;10.40;;;7.80;;
4933;SDS011;2482;49.154;8.254;2022-09-01T03:59:07;9.90;;;7.60;;
4933;SDS011;2482;49.154;8.254;2022-09-01T04:01:43;9.00;;;8.10;;
4933;SDS011;2482;49.154;8.254;2022-09-01T04:04:11;10.27;;;8.17;;
4933;SDS011;2482;49.154;8.254;2022-09-01T04:06:40;7.97;;;7.27;;
4933;SDS011;2482;49.154;8.254;2022-09-01T04:09:10;10.77;;;7.80;;
4933;SDS011;2482;49.154;8.254;2022-09-01T04:11:37;13.30;;;7.50;;
4933;SDS011;2482;49.154;8.254;2022-09-01T04:14:11;10.53;;;7.33;;
4933;SDS011;2482;49.154;8.254;2022-09-01T04:16:38;9.63;;;8.27;;
4933;SDS011;2482;49.154;8.254;2022-09-01T04:19:25;7.80;;;7.10;;
4933;SDS011;2482;49.154;8.254;2022-09-01T04:21:53;7.73;;;6.93;;
4933;SDS011;2482;49.154;8.254;2022-09-01T04:24:25;9.80;;;7.50;;
4933;SDS011;2482;49.154;8.254;2022-09-01T04:26:56;9.37;;;7.80;;
4933;SDS011;2482;49.154;8.254;2022-09-01T04:29:28;8.13;;;7.00;;
4933;SDS011;2482;49.154;8.254;2022-09-01T04:32:07;8.63;;;7.23;;
4933;SDS011;2482;49.154;8.254;2022-09-01T04:34:38;8.07;;;7.37;;
4933;SDS011;2482;49.154;8.254;2022-09-01T04:37:16;8.30;;;7.33;;
4933;SDS011;2482;49.154;8.254;2022-09-01T04:39:53;10.00;;;7.93;;
4933;SDS011;2482;49.154;8.254;2022-09-01T04:42:23;8.60;;;7.90;;
4933;SDS011;2482;49.154;8.254;2022-09-01T04:44:54;8.30;;;7.50;;
4933;SDS011;2482;49.154;8.254;2022-09-01T04:47:23;11.60;;;7.50;;
4933;SDS011;2482;49.154;8.254;2022-09-01T04:50:01;8.47;;;7.00;;
4933;SDS011;2482;49.154;8.254;2022-09-01T04:52:39;9.13;;;7.43;;
4933;SDS011;2482;49.154;8.254;2022-09-01T04:55:08;7.63;;;6.83;;
4933;SDS011;2482;49.154;8.254;2022-09-01T04:57:46;7.63;;;6.90;;
4933;SDS011;2482;49.154;8.254;2022-09-01T05:00:16;9.13;;;7.00;;
4933;SDS011;2482;49.154;8.254;2022-09-01T05:02:52;8.00;;;7.20;;
4933;SDS011;2482;49.154;8.254;2022-09-01T05:05:37;8.27;;;7.07;;
4933;SDS011;2482;49.154;8.254;2022-09-01T05:08:20;7.77;;;7.07;;
4933;SDS011;2482;49.154;8.254;2022-09-01T05:10:50;7.87;;;7.10;;
4933;SDS011;2482;49.154;8.254;2022-09-01T05:13:21;6.80;;;6.20;;
4933;SDS011;2482;49.154;8.254;2022-09-01T05:15:58;7.90;;;6.90;;
4933;SDS011;2482;49.154;8.254;2022-09-01T05:18:29;8.80;;;7.27;;
4933;SDS011;2482;49.154;8.254;2022-09-01T05:20:57;9.30;;;7.80;;
4933;SDS011;2482;49.154;8.254;2022-09-01T05:23:24;7.83;;;7.07;;
4933;SDS011;2482;49.154;8.254;2022-09-01T05:25:52;11.33;;;7.10;;
4933;SDS011;2482;49.154;8.254;2022-09-01T05:28:20;8.40;;;7.60;;
4933;SDS011;2482;49.154;8.254;2022-09-01T05:30:50;9.07;;;8.10;;
4933;SDS011;2482;49.154;8.254;2022-09-01T05:33:20;8.60;;;7.40;;
4933;SDS011;2482;49.154;8.254;2022-09-01T05:35:52;8.47;;;7.67;;
4933;SDS011;2482;49.154;8.254;2022-09-01T05:38:27;8.27;;;7.47;;
4933;SDS011;2482;49.154;8.254;2022-09-01T05:40:57;8.47;;;7.63;;
4933;SDS011;2482;49.154;8.254;2022-09-01T05:43:30;10.60;;;8.40;;
4933;SDS011;2482;49.154;8.254;2022-09-01T05:45:57;8.63;;;7.83;;
4933;SDS011;2482;49.154;8.254;2022-09-01T05:48:34;9.37;;;7.50;;
4933;SDS011;2482;49.154;8.254;2022-09-01T05:51:05;8.10;;;7.30;;
4933;SDS011;2482;49.154;8.254;2022-09-01T05:53:55;9.10;;;8.20;;
4933;SDS011;2482;49.154;8.254;2022-09-01T05:56:25;9.10;;;8.17;;
4933;SDS011;2482;49.154;8.254;2022-09-01T05:58:54;10.43;;;7.80;;
4933;SDS011;2482;49.154;8.254;2022-09-01T06:01:42;8.93;;;7.63;;
4933;SDS011;2482;49.154;8.254;2022-09-01T06:04:15;9.53;;;8.57;;
4933;SDS011;2482;49.154;8.254;2022-09-01T06:06:44;8.73;;;7.90;;
4933;SDS011;2482;49.154;8.254;2022-09-01T06:09:36;9.93;;;7.87;;
4933;SDS011;2482;49.154;8.254;2022-09-01T06:12:05;9.17;;;8.37;;
4933;SDS011;2482;49.154;8.254;2022-09-01T06:14:44;8.20;;;7.30;;
4933;SDS011;2482;49.154;8.254;2022-09-01T06:17:13;9.00;;;8.10;;
4933;SDS011;2482;49.154;8.254;2022-09-01T06:19:44;8.53;;;7.70;;
4933;SDS011;2482;49.154;8.254;2022-09-01T06:22:12;8.77;;;7.87;;
4933;SDS011;2482;49.154;8.254;2022-09-01T06:24:39;10.80;;;9.17;;
4933;SDS011;2482;49.154;8.254;2022-09-01T06:27:10;11.53;;;9.00;;
4933;SDS011;2482;49.154;8.254;2022-09-01T06:29:38;10.90;;;7.83;;
4933;SDS011;2482;49.154;8.254;2022-09-01T06:32:06;9.47;;;8.47;;
4933;SDS011;2482;49.154;8.254;2022-09-01T06:34:38;10.60;;;8.10;;
4933;SDS011;2482;49.154;8.254;2022-09-01T06:37:10;9.07;;;8.20;;
4933;SDS011;2482;49.154;8.254;2022-09-01T06:39:38;12.83;;;8.47;;
4933;SDS011;2482;49.154;8.254;2022-09-01T06:42:05;8.77;;;7.90;;
4933;SDS011;2482;49.154;8.254;2022-09-01T06:44:34;10.80;;;9.00;;
4933;SDS011;2482;49.154;8.254;2022-09-01T06:47:06;9.80;;;8.80;;
4933;SDS011;2482;49.154;8.254;2022-09-01T06:49:34;9.37;;;8.47;;
4933;SDS011;2482;49.154;8.254;2022-09-01T06:52:04;13.53;;;8.87;;
4933;SDS011;2482;49.154;8.254;2022-09-01T06:54:32;10.10;;;8.90;;
4933;SDS011;2482;49.154;8.254;2022-09-01T06:57:03;10.90;;;9.37;;
4933;SDS011;2482;49.154;8.254;2022-09-01T06:59:50;9.63;;;8.63;;
4933;SDS011;2482;49.154;8.254;2022-09-01T07:02:19;12.87;;;10.00;;
4933;SDS011;2482;49.154;8.254;2022-09-01T07:04:52;12.53;;;10.77;;
4933;SDS011;2482;49.154;8.254;2022-09-01T07:07:20;11.73;;;9.53;;
4933;SDS011;2482;49.154;8.254;2022-09-01T07:10:07;11.53;;;10.43;;
4933;SDS011;2482;49.154;8.254;2022-09-01T07:12:55;11.83;;;10.53;;
4933;SDS011;2482;49.154;8.254;2022-09-01T07:15:36;14.10;;;10.30;;
4933;SDS011;2482;49.154;8.254;2022-09-01T07:18:28;15.07;;;11.13;;
4933;SDS011;2482;49.154;8.254;2022-09-01T07:20:56;12.33;;;10.57;;
4933;SDS011;2482;49.154;8.254;2022-09-01T07:23:45;11.70;;;10.60;;
4933;SDS011;2482;49.154;8.254;2022-09-01T07:26:33;13.33;;;11.87;;
4933;SDS011;2482;49.154;8.254;2022-09-01T07:29:10;15.90;;;13.13;;
4933;SDS011;2482;49.154;8.254;2022-09-01T07:31:38;20.80;;;12.60;;
4933;SDS011;2482;49.154;8.254;2022-09-01T07:34:29;13.20;;;11.73;;
4933;SDS011;2482;49.154;8.254;2022-09-01T07:37:04;11.90;;;10.70;;
4933;SDS011;2482;49.154;8.254;2022-09-01T07:39:52;13.33;;;11.93;;
4933;SDS011;2482;49.154;8.254;2022-09-01T07:42:20;13.67;;;12.00;;
4933;SDS011;2482;49.154;8.254;2022-09-01T07:45:09;13.97;;;11.33;;
4933;SDS011;2482;49.154;8.254;2022-09-01T07:47:54;14.57;;;13.07;;
4933;SDS011;2482;49.154;8.254;2022-09-01T07:50:29;15.40;;;12.10;;
4933;SDS011;2482;49.154;8.254;2022-09-01T07:53:17;14.07;;;11.43;;
4933;SDS011;2482;49.154;8.254;2022-09-01T07:55:49;12.53;;;11.23;;
4933;SDS011;2482;49.154;8.254;2022-09-01T07:58:19;12.80;;;10.90;;
4933;SDS011;2482;49.154;8.254;2022-09-01T08:00:49;15.10;;;11.80;;
4933;SDS011;2482;49.154;8.254;2022-09-01T08:03:17;18.17;;;13.50;;
4933;SDS011;2482;49.154;8.254;2022-09-01T08:05:48;14.47;;;12.50;;
4933;SDS011;2482;49.154;8.254;2022-09-01T08:08:19;12.80;;;11.30;;
4933;SDS011;2482;49.154;8.254;2022-09-01T08:10:53;12.30;;;11.10;;
4933;SDS011;2482;49.154;8.254;2022-09-01T08:13:29;17.07;;;12.13;;
4933;SDS011;2482;49.154;8.254;2022-09-01T08:16:06;15.07;;;10.97;;
4933;SDS011;2482;49.154;8.254;2022-09-01T08:18:43;14.50;;;10.90;;
4933;SDS011;2482;49.154;8.254;2022-09-01T08:21:14;14.47;;;10.80;;
4933;SDS011;2482;49.154;8.254;2022-09-01T08:23:43;16.10;;;10.10;;
4933;SDS011;2482;49.154;8.254;2022-09-01T08:26:11;12.43;;;10.77;;
4933;SDS011;2482;49.154;8.254;2022-09-01T08:28:41;13.00;;;11.60;;
4933;SDS011;2482;49.154;8.254;2022-09-01T08:31:20;14.83;;;10.10;;
4933;SDS011;2482;49.154;8.254;2022-09-01T08:33:49;21.40;;;11.50;;
4933;SDS011;2482;49.154;8.254;2022-09-01T08:36:17;14.20;;;10.70;;
4933;SDS011;2482;49.154;8.254;2022-09-01T08:38:51;12.03;;;10.17;;
4933;SDS011;2482;49.154;8.254;2022-09-01T08:41:23;9.80;;;8.60;;
4933;SDS011;2482;49.154;8.254;2022-09-01T08:44:18;11.57;;;9.60;;
4933;SDS011;2482;49.154;8.254;2022-09-01T08:46:47;10.80;;;9.70;;
4933;SDS011;2482;49.154;8.254;2022-09-01T08:49:21;13.43;;;10.37;;
4933;SDS011;2482;49.154;8.254;2022-09-01T08:57:53;12.03;;;9.13;;
4933;SDS011;2482;49.154;8.254;2022-09-01T09:00:27;12.50;;;9.63;;
4933;SDS011;2482;49.154;8.254;2022-09-01T09:03:19;11.40;;;9.30;;
4933;SDS011;2482;49.154;8.254;2022-09-01T09:09:11;8.50;;;7.67;;
4933;SDS011;2482;49.154;8.254;2022-09-01T09:17:44;7.30;;;6.30;;
4933;SDS011;2482;49.154;8.254;2022-09-01T09:20:26;6.63;;;5.93;;
4933;SDS011;2482;49.154;8.254;2022-09-01T09:22:54;6.50;;;5.90;;
4933;SDS011;2482;49.154;8.254;2022-09-01T09:25:24;6.83;;;5.90;;
4933;SDS011;2482;49.154;8.254;2022-09-01T09:27:54;7.13;;;6.43;;
4933;SDS011;2482;49.154;8.254;2022-09-01T09:30:29;6.40;;;5.73;;
4933;SDS011;2482;49.154;8.254;2022-09-01T09:32:58;6.40;;;5.80;;
4933;SDS011;2482;49.154;8.254;2022-09-01T09:35:49;6.10;;;5.50;;
4933;SDS011;2482;49.154;8.254;2022-09-01T09:38:19;6.70;;;6.10;;
4933;SDS011;2482;49.154;8.254;2022-09-01T09:41:01;7.70;;;6.30;;
4933;SDS011;2482;49.154;8.254;2022-09-01T09:43:55;7.63;;;6.90;;
4933;SDS011;2482;49.154;8.254;2022-09-01T09:49:17;7.70;;;5.80;;
4933;SDS011;2482;49.154;8.254;2022-09-01T09:54:37;6.67;;;5.80;;
4933;SDS011;2482;49.154;8.254;2022-09-01T09:57:25;8.60;;;5.80;;
4933;SDS011;2482;49.154;8.254;2022-09-01T10:00:00;7.23;;;5.93;;
4933;SDS011;2482;49.154;8.254;2022-09-01T10:02:37;8.73;;;6.17;;
4933;SDS011;2482;49.154;8.254;2022-09-01T10:07:50;8.23;;;5.50;;
4933;SDS011;2482;49.154;8.254;2022-09-01T10:10:26;6.33;;;5.73;;
4933;SDS011;2482;49.154;8.254;2022-09-01T10:13:03;7.30;;;5.63;;
4933;SDS011;2482;49.154;8.254;2022-09-01T10:15:34;5.93;;;5.43;;
4933;SDS011;2482;49.154;8.254;2022-09-01T10:18:05;6.57;;;5.97;;
4933;SDS011;2482;49.154;8.254;2022-09-01T10:23:28;6.17;;;5.57;;
4933;SDS011;2482;49.154;8.254;2022-09-01T10:26:39;6.93;;;6.17;;
4933;SDS011;2482;49.154;8.254;2022-09-01T10:28:51;9.07;;;6.00;;
4933;SDS011;2482;49.154;8.254;2022-09-01T10:31:25;6.87;;;6.17;;
4933;SDS011;2482;49.154;8.254;2022-09-01T10:33:57;6.60;;;6.00;;
4933;SDS011;2482;49.154;8.254;2022-09-01T10:36:31;9.77;;;6.03;;
4933;SDS011;2482;49.154;8.254;2022-09-01T10:39:08;6.43;;;5.83;;
4933;SDS011;2482;49.154;8.254;2022-09-01T10:41:43;7.07;;;6.00;;
4933;SDS011;2482;49.154;8.254;2022-09-01T10:44:35;12.40;;;6.07;;
4933;SDS011;2482;49.154;8.254;2022-09-01T10:47:24;5.60;;;5.10;;
4933;SDS011;2482;49.154;8.254;2022-09-01T10:50:00;10.43;;;4.73;;
4933;SDS011;2482;49.154;8.254;2022-09-01T10:53:01;6.20;;;5.40;;
4933;SDS011;2482;49.154;8.254;2022-09-01T10:55:42;6.50;;;5.90;;
4933;SDS011;2482;49.154;8.254;2022-09-01T10:58:15;7.40;;;6.00;;
4933;SDS011;2482;49.154;8.254;2022-09-01T11:01:14;7.63;;;5.50;;
4933;SDS011;2482;49.154;8.254;2022-09-01T11:04:01;5.67;;;5.17;;
4933;SDS011;2482;49.154;8.254;2022-09-01T11:09:42;5.20;;;4.47;;
4933;SDS011;2482;49.154;8.254;2022-09-01T11:12:41;6.47;;;5.83;;
4933;SDS011;2482;49.154;8.254;2022-09-01T11:20:31;4.63;;;4.27;;
4933;SDS011;2482;49.154;8.254;2022-09-01T11:23:18;6.70;;;4.40;;
4933;SDS011;2482;49.154;8.254;2022-09-01T11:25:59;5.47;;;4.57;;
4933;SDS011;2482;49.154;8.254;2022-09-01T11:28:45;5.23;;;4.73;;
4933;SDS011;2482;49.154;8.254;2022-09-01T11:31:18;4.43;;;4.03;;
4933;SDS011;2482;49.154;8.254;2022-09-01T11:33:52;5.37;;;4.87;;
4933;SDS011;2482;49.154;8.254;2022-09-01T11:36:26;6.80;;;5.27;;
4933;SDS011;2482;49.154;8.254;2022-09-01T11:42:00;6.30;;;4.10;;
4933;SDS011;2482;49.154;8.254;2022-09-01T11:44:40;9.60;;;4.77;;
4933;SDS011;2482;49.154;8.254;2022-09-01T11:49:56;7.50;;;4.70;;
4933;SDS011;2482;49.154;8.254;2022-09-01T11:52:31;5.40;;;4.77;;
4933;SDS011;2482;49.154;8.254;2022-09-01T11:55:03;5.90;;;4.70;;
4933;SDS011;2482;49.154;8.254;2022-09-01T11:57:33;4.97;;;4.47;;
4933;SDS011;2482;49.154;8.254;2022-09-01T12:00:04;4.00;;;3.67;;
4933;SDS011;2482;49.154;8.254;2022-09-01T12:02:56;5.53;;;5.03;;
4933;SDS011;2482;49.154;8.254;2022-09-01T12:05:30;6.00;;;4.73;;
4933;SDS011;2482;49.154;8.254;2022-09-01T12:08:14;6.20;;;4.80;;
4933;SDS011;2482;49.154;8.254;2022-09-01T12:10:49;4.60;;;4.20;;
4933;SDS011;2482;49.154;8.254;2022-09-01T12:13:17;5.43;;;4.40;;
4933;SDS011;2482;49.154;8.254;2022-09-01T12:15:57;5.07;;;4.57;;
4933;SDS011;2482;49.154;8.254;2022-09-01T12:18:45;5.73;;;4.27;;
4933;SDS011;2482;49.154;8.254;2022-09-01T12:21:39;4.40;;;4.00;;
4933;SDS011;2482;49.154;8.254;2022-09-01T12:24:12;4.67;;;3.40;;
4933;SDS011;2482;49.154;8.254;2022-09-01T12:26:46;5.63;;;4.50;;
4933;SDS011;2482;49.154;8.254;2022-09-01T12:29:17;7.93;;;4.10;;
4933;SDS011;2482;49.154;8.254;2022-09-01T12:31:45;4.67;;;4.13;;
4933;SDS011;2482;49.154;8.254;2022-09-01T12:37:04;4.60;;;4.20;;
4933;SDS011;2482;49.154;8.254;2022-09-01T12:39:50;6.53;;;4.57;;
4933;SDS011;2482;49.154;8.254;2022-09-01T12:42:26;5.40;;;4.60;;
4933;SDS011;2482;49.154;8.254;2022-09-01T12:45:07;4.73;;;4.33;;
4933;SDS011;2482;49.154;8.254;2022-09-01T12:52:48;4.60;;;4.20;;
4933;SDS011;2482;49.154;8.254;2022-09-01T12:55:34;4.50;;;3.83;;
4933;SDS011;2482;49.154;8.254;2022-09-01T12:58:23;6.50;;;4.53;;
4933;SDS011;2482;49.154;8.254;2022-09-01T13:00:56;5.27;;;4.23;;
4933;SDS011;2482;49.154;8.254;2022-09-01T13:03:41;8.03;;;4.40;;
4933;SDS011;2482;49.154;8.254;2022-09-01T13:06:54;5.13;;;4.73;;
4933;SDS011;2482;49.154;8.254;2022-09-01T13:09:31;5.80;;;4.60;;
4933;SDS011;2482;49.154;8.254;2022-09-01T13:12:08;5.30;;;4.27;;
4933;SDS011;2482;49.154;8.254;2022-09-01T13:14:46;7.27;;;4.17;;
4933;SDS011;2482;49.154;8.254;2022-09-01T13:17:14;5.10;;;4.07;;
4933;SDS011;2482;49.154;8.254;2022-09-01T13:19:41;4.70;;;3.97;;
4933;SDS011;2482;49.154;8.254;2022-09-01T13:22:08;4.60;;;4.20;;
4933;SDS011;2482;49.154;8.254;2022-09-01T13:24:36;3.60;;;3.13;;
4933;SDS011;2482;49.154;8.254;2022-09-01T13:27:03;4.13;;;3.80;;
4933;SDS011;2482;49.154;8.254;2022-09-01T13:29:46;7.73;;;3.67;;
4933;SDS011;2482;49.154;8.254;2022-09-01T13:32:14;3.50;;;3.20;;
4933;SDS011;2482;49.154;8.254;2022-09-01T13:34:48;4.07;;;3.27;;
4933;SDS011;2482;49.154;8.254;2022-09-01T13:37:18;7.10;;;3.10;;
4933;SDS011;2482;49.154;8.254;2022-09-01T13:39:46;3.87;;;3.47;;
4933;SDS011;2482;49.154;8.254;2022-09-01T13:42:14;5.80;;;3.77;;
4933;SDS011;2482;49.154;8.254;2022-09-01T13:44:42;3.47;;;3.17;;
4933;SDS011;2482;49.154;8.254;2022-09-01T13:47:12;4.63;;;4.23;;
4933;SDS011;2482;49.154;8.254;2022-09-01T13:49:56;3.60;;;3.30;;
4933;SDS011;2482;49.154;8.254;2022-09-01T13:52:36;3.17;;;2.90;;
4933;SDS011;2482;49.154;8.254;2022-09-01T13:55:07;5.77;;;3.37;;
4933;SDS011;2482;49.154;8.254;2022-09-01T13:57:37;6.30;;;3.97;;
4933;SDS011;2482;49.154;8.254;2022-09-01T14:00:04;3.37;;;3.07;;
4933;SDS011;2482;49.154;8.254;2022-09-01T14:02:39;3.67;;;3.37;;
4933;SDS011;2482;49.154;8.254;2022-09-01T14:05:19;2.70;;;2.50;;
4933;SDS011;2482;49.154;8.254;2022-09-01T14:07:58;8.53;;;2.70;;
4933;SDS011;2482;49.154;8.254;2022-09-01T14:10:27;2.80;;;2.50;;
4933;SDS011;2482;49.154;8.254;2022-09-01T14:12:57;3.40;;;3.10;;
4933;SDS011;2482;49.154;8.254;2022-09-01T14:15:25;3.77;;;3.23;;
4933;SDS011;2482;49.154;8.254;2022-09-01T14:17:54;3.00;;;2.70;;
4933;SDS011;2482;49.154;8.254;2022-09-01T14:20:24;2.70;;;2.50;;
4933;SDS011;2482;49.154;8.254;2022-09-01T14:23:02;4.60;;;2.50;;
4933;SDS011;2482;49.154;8.254;2022-09-01T14:25:30;2.83;;;2.20;;
4933;SDS011;2482;49.154;8.254;2022-09-01T14:27:58;2.60;;;2.40;;
4933;SDS011;2482;49.154;8.254;2022-09-01T14:30:27;2.33;;;2.17;;
4933;SDS011;2482;49.154;8.254;2022-09-01T14:32:58;5.50;;;2.40;;
4933;SDS011;2482;49.154;8.254;2022-09-01T14:35:26;2.47;;;2.27;;
4933;SDS011;2482;49.154;8.254;2022-09-01T14:37:54;2.50;;;2.30;;
4933;SDS011;2482;49.154;8.254;2022-09-01T14:40:21;4.97;;;2.20;;
4933;SDS011;2482;49.154;8.254;2022-09-01T14:42:50;2.40;;;2.20;;
4933;SDS011;2482;49.154;8.254;2022-09-01T14:45:18;5.77;;;2.03;;
4933;SDS011;2482;49.154;8.254;2022-09-01T14:47:54;2.90;;;2.60;;
4933;SDS011;2482;49.154;8.254;2022-09-01T14:50:26;2.70;;;2.50;;
4933;SDS011;2482;49.154;8.254;2022-09-01T14:52:57;2.17;;;2.07;;
4933;SDS011;2482;49.154;8.254;2022-09-01T14:55:27;6.00;;;2.53;;
4933;SDS011;2482;49.154;8.254;2022-09-01T14:57:55;2.10;;;2.00;;
4933;SDS011;2482;49.154;8.254;2022-09-01T15:00:25;4.93;;;2.67;;
4933;SDS011;2482;49.154;8.254;2022-09-01T15:02:54;2.50;;;2.30;;
4933;SDS011;2482;49.154;8.254;2022-09-01T15:05:22;2.57;;;2.37;;
4933;SDS011;2482;49.154;8.254;2022-09-01T15:07:50;1.90;;;1.70;;
4933;SDS011;2482;49.154;8.254;2022-09-01T15:10:20;2.47;;;2.27;;
4933;SDS011;2482;49.154;8.254;2022-09-01T15:12:52;2.40;;;2.20;;
4933;SDS011;2482;49.154;8.254;2022-09-01T15:15:24;1.80;;;1.70;;
4933;SDS011;2482;49.154;8.254;2022-09-01T15:17:53;2.70;;;2.50;;
4933;SDS011;2482;49.154;8.254;2022-09-01T15:20:21;2.63;;;2.13;;
4933;SDS011;2482;49.154;8.254;2022-09-01T15:23:08;2.50;;;2.30;;
4933;SDS011;2482;49.154;8.254;2022-09-01T15:25:35;3.63;;;2.10;;
4933;SDS011;2482;49.154;8.254;2022-09-01T15:28:03;4.03;;;2.40;;
4933;SDS011;2482;49.154;8.254;2022-09-01T15:30:31;2.27;;;2.17;;
4933;SDS011;2482;49.154;8.254;2022-09-01T15:32:58;3.40;;;2.53;;
4933;SDS011;2482;49.154;8.254;2022-09-01T15:35:26;2.40;;;2.30;;
4933;SDS011;2482;49.154;8.254;2022-09-01T15:37:55;2.50;;;2.30;;
4933;SDS011;2482;49.154;8.254;2022-09-01T15:40:24;5.93;;;2.47;;
4933;SDS011;2482;49.154;8.254;2022-09-01T15:42:52;2.53;;;2.33;;
4933;SDS011;2482;49.154;8.254;2022-09-01T15:45:21;2.83;;;2.37;;
4933;SDS011;2482;49.154;8.254;2022-09-01T15:47:50;2.30;;;2.17;;
4933;SDS011;2482;49.154;8.254;2022-09-01T15:50:19;2.50;;;2.30;;
4933;SDS011;2482;49.154;8.254;2022-09-01T15:57:56;2.80;;;2.30;;
4933;SDS011;2482;49.154;8.254;2022-09-01T16:00:25;3.80;;;2.17;;
4933;SDS011;2482;49.154;8.254;2022-09-01T16:02:53;2.50;;;2.30;;
4933;SDS011;2482;49.154;8.254;2022-09-01T16:05:23;2.70;;;2.10;;
4933;SDS011;2482;49.154;8.254;2022-09-01T16:07:51;3.50;;;2.53;;
4933;SDS011;2482;49.154;8.254;2022-09-01T16:10:24;4.93;;;2.50;;
4933;SDS011;2482;49.154;8.254;2022-09-01T16:12:51;2.90;;;2.70;;
4933;SDS011;2482;49.154;8.254;2022-09-01T16:15:19;3.50;;;2.57;;
4933;SDS011;2482;49.154;8.254;2022-09-01T16:20:46;5.13;;;2.97;;
4933;SDS011;2482;49.154;8.254;2022-09-01T16:23:19;4.20;;;2.80;;
4933;SDS011;2482;49.154;8.254;2022-09-01T16:25:57;2.60;;;2.40;;
4933;SDS011;2482;49.154;8.254;2022-09-01T16:28:33;4.27;;;2.40;;
4933;SDS011;2482;49.154;8.254;2022-09-01T16:31:07;3.07;;;2.40;;
4933;SDS011;2482;49.154;8.254;2022-09-01T16:33:45;2.43;;;2.27;;
4933;SDS011;2482;49.154;8.254;2022-09-01T16:36:27;2.50;;;2.40;;
4933;SDS011;2482;49.154;8.254;2022-09-01T16:39:06;2.90;;;2.70;;
4933;SDS011;2482;49.154;8.254;2022-09-01T16:44:49;4.80;;;4.10;;
4933;SDS011;2482;49.154;8.254;2022-09-01T17:02:04;2.90;;;2.70;;
4933;SDS011;2482;49.154;8.254;2022-09-01T17:13:47;2.43;;;2.27;;
4933;SDS011;2482;49.154;8.254;2022-09-01T17:19:09;4.73;;;3.00;;
4933;SDS011;2482;49.154;8.254;2022-09-01T17:21:45;3.30;;;2.63;;
4933;SDS011;2482;49.154;8.254;2022-09-01T17:24:41;2.73;;;2.47;;
4933;SDS011;2482;49.154;8.254;2022-09-01T17:30:18;4.37;;;3.00;;